Airfield :
LOGIN :

Register | Disclaimer

   EN    FR    IT 

 










Legend :    VFR   Marginal VFR   IFR   Intensive IFR   Very Intensive IFR
Visi :
Ceiling :
>= 8 km
>= 3000ft
5 to 8 km
1000 to 3000 ft
1500m to 5 km
500 to 1000 ft
800 to 1500m
200 to 500 ft
< 800m
< 200 ft
Symbols :   Thunderstorms  Fog  Heavy snow  Heavy precipitations  Wind > 20 kt
SIGMETs :     Misc.  Thunderstorms  Icing  Turbulence  Mountain Waves  Volcanic Ashes







- Airport Elevation : 126 ft
- IATA code : TIA


LATI - Rinas Mother Teresa Arpt - Tirana

CURRENT METAR :
  • 220850Z 17006KT 080V220 9999 FEW120 22/12 Q1016 NOSIG

EXPIRED METARs :
  • 220820Z 19004KT 120V270 CAVOK 22/12 Q1016 NOSIG
  • 220750Z 18005KT 130V230 CAVOK 22/12 Q1016 NOSIG
  • 220720Z 20004KT 140V260 CAVOK 21/11 Q1016 NOSIG
  • 220650Z 18005KT 140V230 CAVOK 20/11 Q1016 NOSIG
  • 220620Z 15004KT 120V180 9999 FEW170 19/12 Q1016 NOSIG

TAF TAF LATI
Valid from the 22 at 06:00 until the 23 at 06:00 UTC


220500Z 2206/2306 VRB03KT CAVOK
TEMPO 2210/2217 27012KT
No reported NOTAMs for that airfield.
1 SIGMET reported for the Tirana FIR (LAAA) :
 
Severe turbulence
LAAA SIGMET 3 VALID 220730/221000 LATI
LAAA TIRANA FIR SEV TURB FCST N OF N4040 FL280/380 STNR NC=



MET'MAP, your aeronautical weather chart ! - Copyright ORBIFLY December 2007 - Disclaimer

ORBIFLY MET'MAP TEAM :

Programming & Development : Alexandra Zaïnal
Concept & Development : Baudouin d'Aumeries
Co-Development & Prog : Marc-Olivier Méhu
Technical & hardware support : Manuel Goepfert

Contact : metmap@orbifly.com




SOURCES & CREDITS :

   NOAA